sensor_id;sensor_type;location;lat;lon;timestamp;temperature;humidity
5850;DHT22;2951;47.712;9.400;2022-07-15T00:01:00;22.50;99.90
5850;DHT22;2951;47.712;9.400;2022-07-15T00:03:26;22.50;99.90
5850;DHT22;2951;47.712;9.400;2022-07-15T00:05:53;22.50;99.90
5850;DHT22;2951;47.712;9.400;2022-07-15T00:08:20;22.40;99.90
5850;DHT22;2951;47.712;9.400;2022-07-15T00:10:47;22.30;99.90
5850;DHT22;2951;47.712;9.400;2022-07-15T00:13:13;22.20;99.90
5850;DHT22;2951;47.712;9.400;2022-07-15T00:15:40;22.30;99.90
5850;DHT22;2951;47.712;9.400;2022-07-15T00:18:07;22.30;99.90
5850;DHT22;2951;47.712;9.400;2022-07-15T00:20:34;22.30;99.90
5850;DHT22;2951;47.712;9.400;2022-07-15T00:23:01;22.30;99.90
5850;DHT22;2951;47.712;9.400;2022-07-15T00:25:28;22.20;99.90
5850;DHT22;2951;47.712;9.400;2022-07-15T00:27:56;22.20;99.90
5850;DHT22;2951;47.712;9.400;2022-07-15T00:30:24;22.20;99.90
5850;DHT22;2951;47.712;9.400;2022-07-15T00:32:54;22.20;99.90
5850;DHT22;2951;47.712;9.400;2022-07-15T00:35:22;22.20;99.90
5850;DHT22;2951;47.712;9.400;2022-07-15T00:37:49;22.10;99.90
5850;DHT22;2951;47.712;9.400;2022-07-15T00:40:16;22.10;99.90
5850;DHT22;2951;47.712;9.400;2022-07-15T00:42:43;22.00;99.90
5850;DHT22;2951;47.712;9.400;2022-07-15T00:45:13;22.00;99.90
5850;DHT22;2951;47.712;9.400;2022-07-15T00:47:44;22.00;99.90
5850;DHT22;2951;47.712;9.400;2022-07-15T00:50:12;22.00;99.90
5850;DHT22;2951;47.712;9.400;2022-07-15T00:52:39;22.00;99.90
5850;DHT22;2951;47.712;9.400;2022-07-15T00:55:08;22.00;99.90
5850;DHT22;2951;47.712;9.400;2022-07-15T00:57:36;22.00;99.90
5850;DHT22;2951;47.712;9.400;2022-07-15T01:00:03;22.00;99.90
5850;DHT22;2951;47.712;9.400;2022-07-15T01:02:31;21.90;99.90
5850;DHT22;2951;47.712;9.400;2022-07-15T01:04:58;21.80;99.90
5850;DHT22;2951;47.712;9.400;2022-07-15T01:07:25;21.70;99.90
5850;DHT22;2951;47.712;9.400;2022-07-15T01:09:51;21.70;99.90
5850;DHT22;2951;47.712;9.400;2022-07-15T01:12:18;21.70;99.90
5850;DHT22;2951;47.712;9.400;2022-07-15T01:14:45;21.70;99.90
5850;DHT22;2951;47.712;9.400;2022-07-15T01:17:11;21.80;99.90
5850;DHT22;2951;47.712;9.400;2022-07-15T01:19:38;21.80;99.90
5850;DHT22;2951;47.712;9.400;2022-07-15T01:22:05;21.80;99.90
5850;DHT22;2951;47.712;9.400;2022-07-15T01:24:32;21.80;99.90
5850;DHT22;2951;47.712;9.400;2022-07-15T01:26:58;21.80;99.90
5850;DHT22;2951;47.712;9.400;2022-07-15T01:29:25;21.80;99.90
5850;DHT22;2951;47.712;9.400;2022-07-15T01:31:52;21.80;99.90
5850;DHT22;2951;47.712;9.400;2022-07-15T01:34:19;21.70;99.90
5850;DHT22;2951;47.712;9.400;2022-07-15T01:36:45;21.60;99.90
5850;DHT22;2951;47.712;9.400;2022-07-15T01:39:12;21.60;99.90
5850;DHT22;2951;47.712;9.400;2022-07-15T01:41:59;21.60;99.90
5850;DHT22;2951;47.712;9.400;2022-07-15T01:44:26;21.50;99.90
5850;DHT22;2951;47.712;9.400;2022-07-15T01:46:52;21.40;99.90
5850;DHT22;2951;47.712;9.400;2022-07-15T01:49:19;21.40;99.90
5850;DHT22;2951;47.712;9.400;2022-07-15T01:51:49;21.40;99.90
5850;DHT22;2951;47.712;9.400;2022-07-15T01:54:17;21.40;99.90
5850;DHT22;2951;47.712;9.400;2022-07-15T01:56:43;21.40;99.90
5850;DHT22;2951;47.712;9.400;2022-07-15T01:59:10;21.40;99.90
5850;DHT22;2951;47.712;9.400;2022-07-15T02:01:37;21.30;99.90
5850;DHT22;2951;47.712;9.400;2022-07-15T02:04:05;21.30;99.90
5850;DHT22;2951;47.712;9.400;2022-07-15T02:06:32;21.30;99.90
5850;DHT22;2951;47.712;9.400;2022-07-15T02:08:59;21.30;99.90
5850;DHT22;2951;47.712;9.400;2022-07-15T02:11:25;21.30;99.90
5850;DHT22;2951;47.712;9.400;2022-07-15T02:13:52;21.20;99.90
5850;DHT22;2951;47.712;9.400;2022-07-15T02:16:25;21.20;99.90
5850;DHT22;2951;47.712;9.400;2022-07-15T02:18:52;21.20;99.90
5850;DHT22;2951;47.712;9.400;2022-07-15T02:21:19;21.20;99.90
5850;DHT22;2951;47.712;9.400;2022-07-15T02:23:46;21.20;99.90
5850;DHT22;2951;47.712;9.400;2022-07-15T02:26:13;21.20;99.90
5850;DHT22;2951;47.712;9.400;2022-07-15T02:28:40;21.20;99.90
5850;DHT22;2951;47.712;9.400;2022-07-15T02:31:07;21.20;99.90
5850;DHT22;2951;47.712;9.400;2022-07-15T02:33:33;21.20;99.90
5850;DHT22;2951;47.712;9.400;2022-07-15T02:36:00;21.20;99.90
5850;DHT22;2951;47.712;9.400;2022-07-15T02:38:27;21.20;99.90
5850;DHT22;2951;47.712;9.400;2022-07-15T02:40:53;21.20;99.90
5850;DHT22;2951;47.712;9.400;2022-07-15T02:43:20;21.10;99.90
5850;DHT22;2951;47.712;9.400;2022-07-15T02:45:48;21.10;99.90
5850;DHT22;2951;47.712;9.400;2022-07-15T02:48:15;21.10;99.90
5850;DHT22;2951;47.712;9.400;2022-07-15T02:50:42;21.00;99.90
5850;DHT22;2951;47.712;9.400;2022-07-15T02:53:08;21.00;99.90
5850;DHT22;2951;47.712;9.400;2022-07-15T02:55:35;21.00;99.90
5850;DHT22;2951;47.712;9.400;2022-07-15T02:58:02;20.80;99.90
5850;DHT22;2951;47.712;9.400;2022-07-15T03:00:28;20.90;99.90
5850;DHT22;2951;47.712;9.400;2022-07-15T03:02:56;20.80;99.90
5850;DHT22;2951;47.712;9.400;2022-07-15T03:05:23;20.80;99.90
5850;DHT22;2951;47.712;9.400;2022-07-15T03:07:50;20.90;99.90
5850;DHT22;2951;47.712;9.400;2022-07-15T03:10:17;20.60;99.90
5850;DHT22;2951;47.712;9.400;2022-07-15T03:12:44;20.70;99.90
5850;DHT22;2951;47.712;9.400;2022-07-15T03:15:11;20.70;99.90
5850;DHT22;2951;47.712;9.400;2022-07-15T03:17:40;20.50;99.90
5850;DHT22;2951;47.712;9.400;2022-07-15T03:20:07;20.50;99.90
5850;DHT22;2951;47.712;9.400;2022-07-15T03:22:34;20.50;99.90
5850;DHT22;2951;47.712;9.400;2022-07-15T03:25:01;20.40;99.90
5850;DHT22;2951;47.712;9.400;2022-07-15T03:27:28;20.40;99.90
5850;DHT22;2951;47.712;9.400;2022-07-15T03:29:54;20.40;99.90
5850;DHT22;2951;47.712;9.400;2022-07-15T03:32:22;20.30;99.90
5850;DHT22;2951;47.712;9.400;2022-07-15T03:34:49;20.30;99.90
5850;DHT22;2951;47.712;9.400;2022-07-15T03:37:15;20.20;99.90
5850;DHT22;2951;47.712;9.400;2022-07-15T03:39:42;20.20;99.90
5850;DHT22;2951;47.712;9.400;2022-07-15T03:42:09;20.10;99.90
5850;DHT22;2951;47.712;9.400;2022-07-15T03:44:35;20.10;99.90
5850;DHT22;2951;47.712;9.400;2022-07-15T03:47:02;20.10;99.90
5850;DHT22;2951;47.712;9.400;2022-07-15T03:49:29;20.00;99.90
5850;DHT22;2951;47.712;9.400;2022-07-15T03:51:55;20.10;99.90
5850;DHT22;2951;47.712;9.400;2022-07-15T03:54:22;20.00;99.90
5850;DHT22;2951;47.712;9.400;2022-07-15T03:56:49;20.10;99.90
5850;DHT22;2951;47.712;9.400;2022-07-15T03:59:16;20.10;99.90
5850;DHT22;2951;47.712;9.400;2022-07-15T04:01:44;20.00;99.90
5850;DHT22;2951;47.712;9.400;2022-07-15T04:04:10;20.00;99.90
5850;DHT22;2951;47.712;9.400;2022-07-15T04:06:37;19.90;99.90
5850;DHT22;2951;47.712;9.400;2022-07-15T04:09:04;19.80;99.90
5850;DHT22;2951;47.712;9.400;2022-07-15T04:11:30;19.80;99.90
5850;DHT22;2951;47.712;9.400;2022-07-15T04:13:57;19.90;99.90
5850;DHT22;2951;47.712;9.400;2022-07-15T04:16:25;19.80;99.90
5850;DHT22;2951;47.712;9.400;2022-07-15T04:18:51;19.80;99.90
5850;DHT22;2951;47.712;9.400;2022-07-15T04:21:18;19.70;99.90
5850;DHT22;2951;47.712;9.400;2022-07-15T04:23:45;19.60;99.90
5850;DHT22;2951;47.712;9.400;2022-07-15T04:26:12;19.60;99.90
5850;DHT22;2951;47.712;9.400;2022-07-15T04:28:38;19.60;99.90
5850;DHT22;2951;47.712;9.400;2022-07-15T04:31:05;19.60;99.90
5850;DHT22;2951;47.712;9.400;2022-07-15T04:33:32;19.70;99.90
5850;DHT22;2951;47.712;9.400;2022-07-15T04:35:58;19.70;99.90
5850;DHT22;2951;47.712;9.400;2022-07-15T04:38:25;19.70;99.90
5850;DHT22;2951;47.712;9.400;2022-07-15T04:40:52;19.80;99.90
5850;DHT22;2951;47.712;9.400;2022-07-15T04:43:19;19.90;99.90
5850;DHT22;2951;47.712;9.400;2022-07-15T04:45:45;19.90;99.90
5850;DHT22;2951;47.712;9.400;2022-07-15T04:48:13;19.90;99.90
5850;DHT22;2951;47.712;9.400;2022-07-15T04:50:58;19.90;99.90
5850;DHT22;2951;47.712;9.400;2022-07-15T04:53:25;19.90;99.90
5850;DHT22;2951;47.712;9.400;2022-07-15T04:55:51;20.00;99.90
5850;DHT22;2951;47.712;9.400;2022-07-15T04:58:18;20.00;99.90
5850;DHT22;2951;47.712;9.400;2022-07-15T05:00:45;20.00;99.90
5850;DHT22;2951;47.712;9.400;2022-07-15T05:03:12;20.00;99.90
5850;DHT22;2951;47.712;9.400;2022-07-15T05:05:39;20.00;99.90
5850;DHT22;2951;47.712;9.400;2022-07-15T05:08:13;20.00;99.90
5850;DHT22;2951;47.712;9.400;2022-07-15T05:10:40;20.00;99.90
5850;DHT22;2951;47.712;9.400;2022-07-15T05:13:06;20.10;99.90
5850;DHT22;2951;47.712;9.400;2022-07-15T05:15:33;20.10;99.90
5850;DHT22;2951;47.712;9.400;2022-07-15T05:18:00;20.10;99.90
5850;DHT22;2951;47.712;9.400;2022-07-15T05:20:27;20.00;99.90
5850;DHT22;2951;47.712;9.400;2022-07-15T05:22:54;20.10;99.90
5850;DHT22;2951;47.712;9.400;2022-07-15T05:25:21;20.10;99.90
5850;DHT22;2951;47.712;9.400;2022-07-15T05:27:48;20.10;99.90
5850;DHT22;2951;47.712;9.400;2022-07-15T05:30:15;20.10;99.90
5850;DHT22;2951;47.712;9.400;2022-07-15T05:32:42;20.00;99.90
5850;DHT22;2951;47.712;9.400;2022-07-15T05:35:11;20.10;99.90
5850;DHT22;2951;47.712;9.400;2022-07-15T05:37:38;20.20;99.90
5850;DHT22;2951;47.712;9.400;2022-07-15T05:40:06;20.20;99.90
5850;DHT22;2951;47.712;9.400;2022-07-15T05:42:33;20.20;99.90
5850;DHT22;2951;47.712;9.400;2022-07-15T05:45:00;20.10;99.90
5850;DHT22;2951;47.712;9.400;2022-07-15T05:47:27;20.20;99.90
5850;DHT22;2951;47.712;9.400;2022-07-15T05:49:54;20.30;99.90
5850;DHT22;2951;47.712;9.400;2022-07-15T05:52:21;20.40;99.90
5850;DHT22;2951;47.712;9.400;2022-07-15T05:54:48;20.40;99.90
5850;DHT22;2951;47.712;9.400;2022-07-15T05:57:15;20.40;99.90
5850;DHT22;2951;47.712;9.400;2022-07-15T05:59:42;20.50;99.90
5850;DHT22;2951;47.712;9.400;2022-07-15T06:02:09;20.60;99.90
5850;DHT22;2951;47.712;9.400;2022-07-15T06:04:36;20.60;99.90
5850;DHT22;2951;47.712;9.400;2022-07-15T06:07:03;20.50;99.90
5850;DHT22;2951;47.712;9.400;2022-07-15T06:09:30;20.50;99.90
5850;DHT22;2951;47.712;9.400;2022-07-15T06:11:57;20.60;99.90
5850;DHT22;2951;47.712;9.400;2022-07-15T06:14:25;20.70;99.90
5850;DHT22;2951;47.712;9.400;2022-07-15T06:16:51;20.60;99.90
5850;DHT22;2951;47.712;9.400;2022-07-15T06:19:18;20.80;99.90
5850;DHT22;2951;47.712;9.400;2022-07-15T06:21:45;20.80;99.90
5850;DHT22;2951;47.712;9.400;2022-07-15T06:24:12;20.80;99.90
5850;DHT22;2951;47.712;9.400;2022-07-15T06:26:39;20.90;99.90
5850;DHT22;2951;47.712;9.400;2022-07-15T06:29:06;20.90;99.90
5850;DHT22;2951;47.712;9.400;2022-07-15T06:31:33;20.70;99.90
5850;DHT22;2951;47.712;9.400;2022-07-15T06:34:00;20.60;99.90
5850;DHT22;2951;47.712;9.400;2022-07-15T06:36:26;20.70;99.90
5850;DHT22;2951;47.712;9.400;2022-07-15T06:38:53;20.80;99.90
5850;DHT22;2951;47.712;9.400;2022-07-15T06:41:20;21.00;99.90
5850;DHT22;2951;47.712;9.400;2022-07-15T06:43:48;21.10;99.90
5850;DHT22;2951;47.712;9.400;2022-07-15T06:46:15;21.20;99.90
5850;DHT22;2951;47.712;9.400;2022-07-15T06:48:42;21.10;99.90
5850;DHT22;2951;47.712;9.400;2022-07-15T06:51:09;21.20;99.90
5850;DHT22;2951;47.712;9.400;2022-07-15T06:53:35;21.30;99.90
5850;DHT22;2951;47.712;9.400;2022-07-15T06:56:03;21.40;99.90
5850;DHT22;2951;47.712;9.400;2022-07-15T06:58:29;21.20;99.90
5850;DHT22;2951;47.712;9.400;2022-07-15T07:00:56;21.30;99.90
5850;DHT22;2951;47.712;9.400;2022-07-15T07:03:23;21.50;99.90
5850;DHT22;2951;47.712;9.400;2022-07-15T07:06:09;21.70;99.90
5850;DHT22;2951;47.712;9.400;2022-07-15T07:08:36;21.90;99.90
5850;DHT22;2951;47.712;9.400;2022-07-15T07:11:03;22.00;99.90
5850;DHT22;2951;47.712;9.400;2022-07-15T07:13:30;22.10;99.90
5850;DHT22;2951;47.712;9.400;2022-07-15T07:15:56;22.10;99.90
5850;DHT22;2951;47.712;9.400;2022-07-15T07:18:23;22.30;99.90
5850;DHT22;2951;47.712;9.400;2022-07-15T07:20:51;22.40;99.90
5850;DHT22;2951;47.712;9.400;2022-07-15T07:23:17;22.50;99.90
5850;DHT22;2951;47.712;9.400;2022-07-15T07:25:45;22.50;99.90
5850;DHT22;2951;47.712;9.400;2022-07-15T07:28:12;22.60;99.90
5850;DHT22;2951;47.712;9.400;2022-07-15T07:30:40;22.60;99.90
5850;DHT22;2951;47.712;9.400;2022-07-15T07:33:07;22.60;99.90
5850;DHT22;2951;47.712;9.400;2022-07-15T07:35:34;22.70;99.90
5850;DHT22;2951;47.712;9.400;2022-07-15T07:38:01;22.80;99.90
5850;DHT22;2951;47.712;9.400;2022-07-15T07:40:28;22.70;99.90
5850;DHT22;2951;47.712;9.400;2022-07-15T07:42:54;22.80;99.90
5850;DHT22;2951;47.712;9.400;2022-07-15T07:45:23;22.90;99.90
5850;DHT22;2951;47.712;9.400;2022-07-15T07:47:50;23.00;99.90
5850;DHT22;2951;47.712;9.400;2022-07-15T07:50:16;22.90;99.90
5850;DHT22;2951;47.712;9.400;2022-07-15T07:52:43;23.10;99.90
5850;DHT22;2951;47.712;9.400;2022-07-15T07:55:10;23.20;99.90
5850;DHT22;2951;47.712;9.400;2022-07-15T07:57:45;23.20;99.90
5850;DHT22;2951;47.712;9.400;2022-07-15T08:00:12;23.30;99.90
5850;DHT22;2951;47.712;9.400;2022-07-15T08:02:39;23.20;99.90
5850;DHT22;2951;47.712;9.400;2022-07-15T08:05:06;23.10;99.90
5850;DHT22;2951;47.712;9.400;2022-07-15T08:07:34;23.20;99.90
5850;DHT22;2951;47.712;9.400;2022-07-15T08:10:02;23.40;99.90
5850;DHT22;2951;47.712;9.400;2022-07-15T08:12:29;23.30;99.90
5850;DHT22;2951;47.712;9.400;2022-07-15T08:14:56;23.30;99.90
5850;DHT22;2951;47.712;9.400;2022-07-15T08:17:23;23.30;99.90
5850;DHT22;2951;47.712;9.400;2022-07-15T08:19:50;23.40;99.90
5850;DHT22;2951;47.712;9.400;2022-07-15T08:22:17;23.60;99.90
5850;DHT22;2951;47.712;9.400;2022-07-15T08:24:44;23.70;99.90
5850;DHT22;2951;47.712;9.400;2022-07-15T08:27:11;23.70;99.90
5850;DHT22;2951;47.712;9.400;2022-07-15T08:29:37;23.80;99.90
5850;DHT22;2951;47.712;9.400;2022-07-15T08:32:04;23.80;99.90
5850;DHT22;2951;47.712;9.400;2022-07-15T08:34:31;23.80;99.90
5850;DHT22;2951;47.712;9.400;2022-07-15T08:36:58;24.00;99.90
5850;DHT22;2951;47.712;9.400;2022-07-15T08:39:25;24.00;99.90
5850;DHT22;2951;47.712;9.400;2022-07-15T08:41:52;23.90;99.90
5850;DHT22;2951;47.712;9.400;2022-07-15T08:44:19;23.90;99.90
5850;DHT22;2951;47.712;9.400;2022-07-15T08:46:46;23.90;99.90
5850;DHT22;2951;47.712;9.400;2022-07-15T08:49:14;23.80;99.90
5850;DHT22;2951;47.712;9.400;2022-07-15T08:51:42;24.00;99.90
5850;DHT22;2951;47.712;9.400;2022-07-15T08:54:10;24.30;99.90
5850;DHT22;2951;47.712;9.400;2022-07-15T08:56:37;24.30;99.90
5850;DHT22;2951;47.712;9.400;2022-07-15T08:59:04;24.30;99.90
5850;DHT22;2951;47.712;9.400;2022-07-15T09:01:33;24.30;99.90
5850;DHT22;2951;47.712;9.400;2022-07-15T09:04:00;24.40;99.90
5850;DHT22;2951;47.712;9.400;2022-07-15T09:06:31;24.50;99.90
5850;DHT22;2951;47.712;9.400;2022-07-15T09:08:58;24.40;99.90
5850;DHT22;2951;47.712;9.400;2022-07-15T09:11:28;24.40;99.90
5850;DHT22;2951;47.712;9.400;2022-07-15T09:13:57;24.50;99.90
5850;DHT22;2951;47.712;9.400;2022-07-15T09:16:25;24.40;99.90
5850;DHT22;2951;47.712;9.400;2022-07-15T09:18:53;24.30;99.90
5850;DHT22;2951;47.712;9.400;2022-07-15T09:21:24;24.30;99.90
5850;DHT22;2951;47.712;9.400;2022-07-15T09:23:52;24.30;99.90
5850;DHT22;2951;47.712;9.400;2022-07-15T09:26:28;24.40;99.90
5850;DHT22;2951;47.712;9.400;2022-07-15T09:28:56;24.60;99.90
5850;DHT22;2951;47.712;9.400;2022-07-15T09:34:15;24.60;99.90
5850;DHT22;2951;47.712;9.400;2022-07-15T09:36:52;24.70;99.90
5850;DHT22;2951;47.712;9.400;2022-07-15T09:39:21;24.80;99.90
5850;DHT22;2951;47.712;9.400;2022-07-15T09:41:48;24.90;99.90
5850;DHT22;2951;47.712;9.400;2022-07-15T09:44:16;24.90;99.90
5850;DHT22;2951;47.712;9.400;2022-07-15T09:49:11;24.80;99.90
5850;DHT22;2951;47.712;9.400;2022-07-15T09:51:49;24.80;99.90
5850;DHT22;2951;47.712;9.400;2022-07-15T09:54:17;25.00;99.90
5850;DHT22;2951;47.712;9.400;2022-07-15T09:56:44;24.80;99.90
5850;DHT22;2951;47.712;9.400;2022-07-15T09:59:11;24.60;99.90
5850;DHT22;2951;47.712;9.400;2022-07-15T10:01:39;24.90;99.90
5850;DHT22;2951;47.712;9.400;2022-07-15T10:04:06;24.90;99.90
5850;DHT22;2951;47.712;9.400;2022-07-15T10:06:33;24.90;99.90
5850;DHT22;2951;47.712;9.400;2022-07-15T10:09:02;25.10;99.90
5850;DHT22;2951;47.712;9.400;2022-07-15T10:11:30;25.20;99.90
5850;DHT22;2951;47.712;9.400;2022-07-15T10:21:49;25.00;99.90
5850;DHT22;2951;47.712;9.400;2022-07-15T10:29:57;25.30;99.90
5850;DHT22;2951;47.712;9.400;2022-07-15T10:32:28;25.50;99.90
5850;DHT22;2951;47.712;9.400;2022-07-15T10:34:55;25.80;99.90
5850;DHT22;2951;47.712;9.400;2022-07-15T10:37:22;26.00;99.90
5850;DHT22;2951;47.712;9.400;2022-07-15T10:39:54;26.30;99.90
5850;DHT22;2951;47.712;9.400;2022-07-15T10:42:22;26.10;99.90
5850;DHT22;2951;47.712;9.400;2022-07-15T10:44:50;25.80;99.90
5850;DHT22;2951;47.712;9.400;2022-07-15T10:47:17;25.60;99.90
5850;DHT22;2951;47.712;9.400;2022-07-15T10:49:49;25.40;99.90
5850;DHT22;2951;47.712;9.400;2022-07-15T10:54:44;25.70;99.90
5850;DHT22;2951;47.712;9.400;2022-07-15T10:57:11;26.00;99.90
5850;DHT22;2951;47.712;9.400;2022-07-15T10:59:47;26.40;99.90
5850;DHT22;2951;47.712;9.400;2022-07-15T11:02:15;26.60;99.90
5850;DHT22;2951;47.712;9.400;2022-07-15T11:04:43;26.60;99.90
5850;DHT22;2951;47.712;9.400;2022-07-15T11:17:17;26.20;99.90
5850;DHT22;2951;47.712;9.400;2022-07-15T11:19:52;26.40;99.90
5850;DHT22;2951;47.712;9.400;2022-07-15T11:22:20;26.70;99.90
5850;DHT22;2951;47.712;9.400;2022-07-15T11:24:47;27.00;99.90
5850;DHT22;2951;47.712;9.400;2022-07-15T11:27:15;27.00;99.90
5850;DHT22;2951;47.712;9.400;2022-07-15T11:29:46;26.90;99.90
5850;DHT22;2951;47.712;9.400;2022-07-15T11:32:14;26.30;99.90
5850;DHT22;2951;47.712;9.400;2022-07-15T11:34:42;26.50;99.90
5850;DHT22;2951;47.712;9.400;2022-07-15T11:37:10;26.60;99.90
5850;DHT22;2951;47.712;9.400;2022-07-15T11:39:37;26.80;99.90
5850;DHT22;2951;47.712;9.400;2022-07-15T11:42:04;27.00;99.90
5850;DHT22;2951;47.712;9.400;2022-07-15T11:44:50;27.10;99.90
5850;DHT22;2951;47.712;9.400;2022-07-15T11:47:17;27.00;99.90
5850;DHT22;2951;47.712;9.400;2022-07-15T11:49:47;26.70;99.90
5850;DHT22;2951;47.712;9.400;2022-07-15T11:52:25;27.00;99.90
5850;DHT22;2951;47.712;9.400;2022-07-15T11:54:51;27.10;99.90
5850;DHT22;2951;47.712;9.400;2022-07-15T11:57:18;27.10;99.90
5850;DHT22;2951;47.712;9.400;2022-07-15T11:59:50;27.10;99.90
5850;DHT22;2951;47.712;9.400;2022-07-15T12:02:16;27.10;99.90
5850;DHT22;2951;47.712;9.400;2022-07-15T12:04:44;26.90;99.90
5850;DHT22;2951;47.712;9.400;2022-07-15T12:07:14;26.80;99.90
5850;DHT22;2951;47.712;9.400;2022-07-15T12:09:48;26.90;99.90
5850;DHT22;2951;47.712;9.400;2022-07-15T12:12:15;27.10;99.90
5850;DHT22;2951;47.712;9.400;2022-07-15T12:14:49;27.10;99.90
5850;DHT22;2951;47.712;9.400;2022-07-15T12:17:17;27.30;99.90
5850;DHT22;2951;47.712;9.400;2022-07-15T12:19:46;27.80;99.90
5850;DHT22;2951;47.712;9.400;2022-07-15T12:22:13;28.00;99.90
5850;DHT22;2951;47.712;9.400;2022-07-15T12:27:07;28.20;99.90
5850;DHT22;2951;47.712;9.400;2022-07-15T12:29:34;28.20;99.90
5850;DHT22;2951;47.712;9.400;2022-07-15T12:32:21;28.10;99.90
5850;DHT22;2951;47.712;9.400;2022-07-15T12:37:25;28.30;99.90
5850;DHT22;2951;47.712;9.400;2022-07-15T12:39:52;28.20;99.90
5850;DHT22;2951;47.712;9.400;2022-07-15T12:42:19;27.80;99.90
5850;DHT22;2951;47.712;9.400;2022-07-15T12:44:46;27.60;99.90
5850;DHT22;2951;47.712;9.400;2022-07-15T12:47:57;27.80;99.90
5850;DHT22;2951;47.712;9.400;2022-07-15T12:50:24;28.20;99.90
5850;DHT22;2951;47.712;9.400;2022-07-15T12:52:53;28.10;99.90
5850;DHT22;2951;47.712;9.400;2022-07-15T12:55:20;28.70;99.90
5850;DHT22;2951;47.712;9.400;2022-07-15T12:57:48;29.10;99.90
5850;DHT22;2951;47.712;9.400;2022-07-15T13:05:27;28.20;99.90
5850;DHT22;2951;47.712;9.400;2022-07-15T13:07:54;28.10;99.90
5850;DHT22;2951;47.712;9.400;2022-07-15T13:10:21;28.10;99.90
5850;DHT22;2951;47.712;9.400;2022-07-15T13:12:48;28.30;99.90
5850;DHT22;2951;47.712;9.400;2022-07-15T13:15:14;28.20;99.90
5850;DHT22;2951;47.712;9.400;2022-07-15T13:17:46;28.40;99.90
5850;DHT22;2951;47.712;9.400;2022-07-15T13:20:13;28.70;99.90
5850;DHT22;2951;47.712;9.400;2022-07-15T13:22:40;28.40;99.90
5850;DHT22;2951;47.712;9.400;2022-07-15T13:25:07;28.00;99.90
5850;DHT22;2951;47.712;9.400;2022-07-15T13:27:34;28.20;99.90
5850;DHT22;2951;47.712;9.400;2022-07-15T13:30:02;27.60;99.90
5850;DHT22;2951;47.712;9.400;2022-07-15T13:32:29;27.70;99.90
5850;DHT22;2951;47.712;9.400;2022-07-15T13:34:56;27.40;99.90
5850;DHT22;2951;47.712;9.400;2022-07-15T13:37:23;27.40;99.90
5850;DHT22;2951;47.712;9.400;2022-07-15T13:39:50;27.50;99.90
5850;DHT22;2951;47.712;9.400;2022-07-15T13:42:16;27.80;99.90
5850;DHT22;2951;47.712;9.400;2022-07-15T13:44:44;27.80;99.90
5850;DHT22;2951;47.712;9.400;2022-07-15T13:47:11;27.80;99.90
5850;DHT22;2951;47.712;9.400;2022-07-15T13:49:37;27.80;99.90
5850;DHT22;2951;47.712;9.400;2022-07-15T13:52:23;27.60;99.90
5850;DHT22;2951;47.712;9.400;2022-07-15T13:54:49;27.70;99.90
5850;DHT22;2951;47.712;9.400;2022-07-15T13:57:16;28.00;99.90
5850;DHT22;2951;47.712;9.400;2022-07-15T13:59:43;27.70;99.90
5850;DHT22;2951;47.712;9.400;2022-07-15T14:02:09;27.90;99.90
5850;DHT22;2951;47.712;9.400;2022-07-15T14:04:36;28.50;99.90
5850;DHT22;2951;47.712;9.400;2022-07-15T14:07:03;28.80;99.90
5850;DHT22;2951;47.712;9.400;2022-07-15T14:09:30;29.20;99.90
5850;DHT22;2951;47.712;9.400;2022-07-15T14:11:56;29.70;99.90
5850;DHT22;2951;47.712;9.400;2022-07-15T14:14:23;29.80;99.90
5850;DHT22;2951;47.712;9.400;2022-07-15T14:16:51;30.10;99.90
5850;DHT22;2951;47.712;9.400;2022-07-15T14:19:18;30.90;99.90
5850;DHT22;2951;47.712;9.400;2022-07-15T14:21:45;31.40;99.90
5850;DHT22;2951;47.712;9.400;2022-07-15T14:24:17;31.40;99.90
5850;DHT22;2951;47.712;9.400;2022-07-15T14:26:44;31.30;99.90
5850;DHT22;2951;47.712;9.400;2022-07-15T14:29:11;30.90;99.90
5850;DHT22;2951;47.712;9.400;2022-07-15T14:31:38;30.80;99.90
5850;DHT22;2951;47.712;9.400;2022-07-15T14:34:05;31.10;99.90
5850;DHT22;2951;47.712;9.400;2022-07-15T14:36:32;31.30;99.90
5850;DHT22;2951;47.712;9.400;2022-07-15T14:38:59;31.20;99.90
5850;DHT22;2951;47.712;9.400;2022-07-15T14:41:26;31.50;99.90
5850;DHT22;2951;47.712;9.400;2022-07-15T14:43:52;32.10;99.90
5850;DHT22;2951;47.712;9.400;2022-07-15T14:46:19;31.40;99.90
5850;DHT22;2951;47.712;9.400;2022-07-15T14:48:47;30.90;99.90
5850;DHT22;2951;47.712;9.400;2022-07-15T14:51:14;30.90;99.90
5850;DHT22;2951;47.712;9.400;2022-07-15T14:53:41;31.30;99.90
5850;DHT22;2951;47.712;9.400;2022-07-15T14:56:07;31.70;99.90
5850;DHT22;2951;47.712;9.400;2022-07-15T14:58:34;31.70;99.90
5850;DHT22;2951;47.712;9.400;2022-07-15T15:01:01;31.50;99.90
5850;DHT22;2951;47.712;9.400;2022-07-15T15:03:27;31.50;99.90
5850;DHT22;2951;47.712;9.400;2022-07-15T15:05:54;31.60;99.90
5850;DHT22;2951;47.712;9.400;2022-07-15T15:08:22;32.00;99.90
5850;DHT22;2951;47.712;9.400;2022-07-15T15:10:49;32.40;99.90
5850;DHT22;2951;47.712;9.400;2022-07-15T15:13:16;32.90;99.90
5850;DHT22;2951;47.712;9.400;2022-07-15T15:15:43;32.20;99.90
5850;DHT22;2951;47.712;9.400;2022-07-15T15:18:10;32.10;99.90
5850;DHT22;2951;47.712;9.400;2022-07-15T15:20:37;32.90;99.90
5850;DHT22;2951;47.712;9.400;2022-07-15T15:23:04;33.60;99.90
5850;DHT22;2951;47.712;9.400;2022-07-15T15:25:30;33.40;99.90
5850;DHT22;2951;47.712;9.400;2022-07-15T15:28:16;33.10;99.90
5850;DHT22;2951;47.712;9.400;2022-07-15T15:30:42;33.20;99.90
5850;DHT22;2951;47.712;9.400;2022-07-15T15:33:09;32.90;99.90
5850;DHT22;2951;47.712;9.400;2022-07-15T15:35:36;33.50;99.90
5850;DHT22;2951;47.712;9.400;2022-07-15T15:38:02;33.40;99.90
5850;DHT22;2951;47.712;9.400;2022-07-15T15:40:29;32.70;99.90
5850;DHT22;2951;47.712;9.400;2022-07-15T15:42:56;33.10;99.90
5850;DHT22;2951;47.712;9.400;2022-07-15T15:45:22;33.90;99.90
5850;DHT22;2951;47.712;9.400;2022-07-15T15:47:50;34.10;99.90
5850;DHT22;2951;47.712;9.400;2022-07-15T15:50:17;34.60;99.90
5850;DHT22;2951;47.712;9.400;2022-07-15T15:52:44;34.90;99.90
5850;DHT22;2951;47.712;9.400;2022-07-15T15:55:10;33.90;99.90
5850;DHT22;2951;47.712;9.400;2022-07-15T15:57:37;33.60;99.90
5850;DHT22;2951;47.712;9.400;2022-07-15T16:00:06;33.30;99.90
5850;DHT22;2951;47.712;9.400;2022-07-15T16:02:34;32.80;99.90
5850;DHT22;2951;47.712;9.400;2022-07-15T16:05:01;32.00;99.90
5850;DHT22;2951;47.712;9.400;2022-07-15T16:07:44;31.60;99.90
5850;DHT22;2951;47.712;9.400;2022-07-15T16:10:10;31.60;99.90
5850;DHT22;2951;47.712;9.400;2022-07-15T16:12:37;31.60;99.90
5850;DHT22;2951;47.712;9.400;2022-07-15T16:15:04;31.50;99.90
5850;DHT22;2951;47.712;9.400;2022-07-15T16:17:31;31.30;99.90
5850;DHT22;2951;47.712;9.400;2022-07-15T16:19:58;31.50;99.90
5850;DHT22;2951;47.712;9.400;2022-07-15T16:22:26;30.90;99.90
5850;DHT22;2951;47.712;9.400;2022-07-15T16:25:12;30.60;99.90
5850;DHT22;2951;47.712;9.400;2022-07-15T16:27:39;30.70;99.90
5850;DHT22;2951;47.712;9.400;2022-07-15T16:30:05;30.50;99.90
5850;DHT22;2951;47.712;9.400;2022-07-15T16:32:32;29.90;99.90
5850;DHT22;2951;47.712;9.400;2022-07-15T16:34:59;29.10;99.90
5850;DHT22;2951;47.712;9.400;2022-07-15T16:37:26;29.20;99.90
5850;DHT22;2951;47.712;9.400;2022-07-15T16:39:53;29.50;99.90
5850;DHT22;2951;47.712;9.400;2022-07-15T16:42:19;29.60;99.90
5850;DHT22;2951;47.712;9.400;2022-07-15T16:44:47;29.50;99.90
5850;DHT22;2951;47.712;9.400;2022-07-15T16:47:14;29.70;99.90